Date,TemperatureHighF,TemperatureAvgF,TemperatureLowF,DewpointHighF,DewpointAvgF,DewpointLowF,HumidityHigh,HumidityAvg,HumidityLow,PressureMaxIn,PressureMinIn,WindSpeedMaxMPH,WindSpeedAvgMPH,GustSpeedMaxMPH,PrecipitationSumIn
2012-12-1,61,48,32,53,43,29,89,81,73,30.13,29.92,15,5,15,0.00
2012-12-2,65,58,48,57,52,44,89,82,72,30.05,29.89,15,2,15,0.00
2012-12-3,71,62,49,63,54,44,88,75,67,30.04,29.81,18,6,18,0.02
2012-12-4,63,51,41,58,41,31,89,70,48,30.26,29.90,11,2,11,0.18
2012-12-5,43,35,29,31,27,21,76,71,63,30.40,30.25,11,3,11,0.00
2012-12-6,46,39,31,40,34,27,86,82,74,30.21,29.92,11,2,11,0.00
2012-12-7,47,44,42,44,40,38,89,87,83,29.95,29.85,8,0,8,0.10
2012-12-8,44,40,36,39,36,32,89,85,76,30.08,29.81,14,4,14,0.04
2012-12-9,46,40,36,41,36,32,90,86,81,30.06,29.72,13,4,13,0.08
2012-12-10,39,31,29,35,28,25,90,88,83,29.95,29.73,12,2,12,0.00
2012-12-11,35,29,22,27,24,19,89,81,66,30.17,29.95,14,2,14,0.00
2012-12-12,45,33,24,33,26,20,86,77,58,30.32,30.16,13,2,13,0.00
2012-12-13,47,37,29,33,29,24,82,72,55,30.30,30.13,14,5,14,0.00
2012-12-14,49,38,26,36,31,22,88,77,61,30.21,30.03,8,1,8,0.00
2012-12-15,51,45,37,48,41,31,89,85,75,30.04,29.60,22,5,22,0.13
2012-12-16,51,44,38,47,40,34,89,86,82,29.75,29.61,8,1,8,0.00
2012-12-17,40,38,34,34,33,30,87,84,80,29.75,29.64,8,0,8,0.00
2012-12-18,44,38,32,40,33,28,87,84,81,29.81,29.59,14,3,14,0.00
2012-12-19,42,38,34,38,34,30,90,85,79,30.05,29.73,18,4,18,0.20
2012-12-20,51,43,34,46,39,30,90,87,82,29.75,29.07,22,9,22,0.59
2012-12-21,32,26,20,28,20,14,86,79,75,30.17,29.54,17,8,17,0.00
2012-12-22,33,27,16,25,21,12,87,79,71,30.22,29.94,10,1,10,0.36
2012-12-23,38,28,19,32,24,16,89,86,77,30.00,29.90,8,0,8,0.00
2012-12-24,34,31,26,29,26,23,88,84,80,30.06,29.82,14,3,14,0.00
2012-12-25,34,31,29,27,24,22,81,77,69,30.29,30.06,13,3,13,0.00
2012-12-26,33,32,29,27,25,22,79,76,71,30.14,29.92,20,6,20,0.00
2012-12-27,33,30,28,27,25,22,86,80,77,30.17,30.05,11,2,11,0.00
2012-12-28,32,31,30,29,28,26,90,86,81,30.11,29.86,10,2,10,0.00
2012-12-29,31,27,21,28,23,16,90,84,76,30.23,29.85,18,4,18,0.00
2012-12-30,37,26,15,28,20,11,85,79,67,30.35,30.11,15,3,15,0.00
2012-12-31,38,33,30,29,26,24,79,76,67,30.11,30.03,16,5,16,0.00